Time;durP1;ratioP1;P1;durP2;ratioP2;P2;SDS_P1;SDS_P2;PMS_P1;PMS_P2;Temp;Humidity;BMP_temperature;BMP_pressure;BME280_temperature;BME280_humidity;BME280_pressure;Samples;Min_cycle;Max_cycle;Signal;HPM_P1;HPM_P2
2024/03/20 00:00:20;;;;;;;7.32;4.22;;;11.20;49.50;;;;;;4972639;28;20825;-73
2024/03/20 00:02:48;;;;;;;10.38;4.80;;;11.20;49.50;;;;;;4972386;28;20474;-74
2024/03/20 00:05:15;;;;;;;10.20;4.70;;;11.20;49.80;;;;;;4971980;28;21075;-73
2024/03/20 00:07:41;;;;;;;8.45;4.30;;;11.20;50.00;;;;;;4971931;28;20404;-74
2024/03/20 00:10:08;;;;;;;11.10;4.40;;;11.10;50.10;;;;;;4972164;28;20808;-74
2024/03/20 00:12:34;;;;;;;6.97;4.30;;;11.10;50.20;;;;;;4972394;28;20403;-74
2024/03/20 00:15:00;;;;;;;8.02;4.60;;;11.10;50.30;;;;;;4972116;28;20404;-75
2024/03/20 00:17:25;;;;;;;6.20;4.27;;;11.10;51.20;;;;;;4972141;28;20415;-75
2024/03/20 00:19:51;;;;;;;8.03;4.67;;;11.10;50.60;;;;;;4971889;28;20479;-75
2024/03/20 00:22:17;;;;;;;7.47;4.40;;;11.00;50.80;;;;;;4954711;28;20392;-75
2024/03/20 00:24:43;;;;;;;8.07;4.38;;;11.00;51.10;;;;;;4972115;28;20408;-74
2024/03/20 00:27:08;;;;;;;6.25;4.20;;;11.00;51.30;;;;;;4971826;28;20389;-73
2024/03/20 00:29:34;;;;;;;6.90;4.57;;;11.00;51.10;;;;;;4971660;28;20392;-75
2024/03/20 00:32:00;;;;;;;6.72;3.90;;;11.00;50.70;;;;;;4972154;28;20439;-76
2024/03/20 00:34:26;;;;;;;7.67;4.10;;;11.00;51.20;;;;;;4972490;28;20454;-75
2024/03/20 00:36:52;;;;;;;6.20;4.13;;;10.90;51.60;;;;;;4973042;28;20418;-76
2024/03/20 00:39:18;;;;;;;5.27;3.90;;;10.90;52.00;;;;;;4973036;28;20515;-75
2024/03/20 00:41:46;;;;;;;6.85;3.85;;;10.80;52.20;;;;;;4972426;28;20388;-74
2024/03/20 00:44:11;;;;;;;7.45;3.78;;;10.80;53.10;;;;;;4972377;28;20412;-74
2024/03/20 00:46:37;;;;;;;6.50;3.85;;;10.70;52.80;;;;;;4971797;28;20784;-74
2024/03/20 00:49:03;;;;;;;8.30;4.25;;;10.70;53.00;;;;;;4971250;28;20400;-73
2024/03/20 00:51:28;;;;;;;5.82;4.28;;;10.70;53.20;;;;;;4971615;28;20392;-73
2024/03/20 00:53:54;;;;;;;10.70;4.30;;;10.60;53.90;;;;;;4971364;28;20432;-73
2024/03/20 00:56:20;;;;;;;7.40;4.30;;;10.50;54.50;;;;;;4953942;28;20486;-74
2024/03/20 00:58:46;;;;;;;6.55;3.90;;;10.50;54.50;;;;;;4971308;28;20480;-73
2024/03/20 01:01:12;;;;;;;7.93;4.40;;;10.60;54.60;;;;;;4971752;28;20400;-75
2024/03/20 01:03:38;;;;;;;9.60;5.00;;;10.60;54.20;;;;;;4971481;28;20397;-74
2024/03/20 01:06:03;;;;;;;8.43;4.68;;;10.50;54.70;;;;;;4971478;28;20401;-73
2024/03/20 01:08:29;;;;;;;9.38;4.07;;;10.50;54.90;;;;;;4971535;28;20385;-73
2024/03/20 01:10:55;;;;;;;9.98;4.85;;;10.50;55.20;;;;;;4973294;28;20533;-74
2024/03/20 01:13:22;;;;;;;8.30;4.30;;;10.60;54.30;;;;;;4974602;28;20392;-73
2024/03/20 01:15:48;;;;;;;7.65;4.20;;;10.60;54.60;;;;;;4974953;28;20891;-73
2024/03/20 01:18:16;;;;;;;6.55;4.28;;;10.60;54.60;;;;;;4974797;28;20491;-74
2024/03/20 01:20:42;;;;;;;9.38;4.75;;;10.60;54.70;;;;;;4974325;28;21245;-74
2024/03/20 01:23:07;;;;;;;6.97;4.25;;;10.60;54.60;;;;;;4974806;28;20392;-74
2024/03/20 01:25:33;;;;;;;7.45;4.53;;;10.70;54.70;;;;;;4976646;28;20424;-75
2024/03/20 01:27:59;;;;;;;9.23;4.63;;;10.70;54.50;;;;;;4974904;28;20423;-74
2024/03/20 01:30:24;;;;;;;10.13;4.82;;;10.70;54.20;;;;;;4974278;28;20396;-74
2024/03/20 01:32:50;;;;;;;6.97;4.43;;;10.80;54.00;;;;;;4974521;28;20387;-74
2024/03/20 01:35:16;;;;;;;11.38;5.05;;;10.80;54.10;;;;;;4974326;28;20392;-72
2024/03/20 01:37:41;;;;;;;9.55;4.93;;;10.80;53.90;;;;;;4974287;28;20412;-73
2024/03/20 01:40:07;;;;;;;10.03;4.80;;;10.90;53.60;;;;;;4974372;28;20398;-73
2024/03/20 01:42:33;;;;;;;10.73;4.60;;;10.90;53.40;;;;;;4974272;28;20424;-74
2024/03/20 01:45:15;;;;;;;9.65;4.95;;;10.90;53.00;;;;;;4974074;28;20427;-74
2024/03/20 01:47:42;;;;;;;7.57;4.78;;;11.00;52.40;;;;;;4974262;28;20878;-72
2024/03/20 01:50:09;;;;;;;9.15;4.50;;;10.90;52.50;;;;;;4973779;28;20483;-75
2024/03/20 01:52:38;;;;;;;7.93;4.78;;;10.90;53.10;;;;;;4974474;28;20396;-72
2024/03/20 01:55:05;;;;;;;7.80;4.82;;;10.80;53.70;;;;;;4974329;28;20416;-73
2024/03/20 01:57:30;;;;;;;8.43;5.05;;;10.80;53.70;;;;;;4973794;28;20527;-73
2024/03/20 01:59:56;;;;;;;9.32;4.75;;;10.70;54.30;;;;;;4974010;28;20483;-74
2024/03/20 02:02:22;;;;;;;10.18;5.75;;;10.70;54.30;;;;;;4974451;28;20459;-74
2024/03/20 02:04:47;;;;;;;10.40;4.70;;;10.70;54.50;;;;;;4974014;28;20384;-72
2024/03/20 02:07:14;;;;;;;8.70;4.88;;;10.80;54.30;;;;;;4974156;28;20400;-73
2024/03/20 02:09:39;;;;;;;7.30;4.67;;;10.80;54.20;;;;;;4973793;28;20392;-73
2024/03/20 02:12:05;;;;;;;9.03;4.97;;;11.00;53.50;;;;;;4973873;28;20403;-73
2024/03/20 02:14:37;;;;;;;9.63;4.80;;;11.00;53.50;;;;;;4973795;28;20392;-74
2024/03/20 02:17:03;;;;;;;8.00;4.38;;;11.10;53.40;;;;;;4973967;28;20435;-74
2024/03/20 02:19:28;;;;;;;11.50;4.97;;;11.10;52.80;;;;;;4973826;28;20400;-73
2024/03/20 02:21:54;;;;;;;8.75;5.13;;;11.10;52.40;;;;;;4973613;28;20399;-72
2024/03/20 02:24:19;;;;;;;10.67;4.83;;;11.10;52.20;;;;;;5000673;22;20970;-71
2024/03/20 02:26:45;;;;;;;8.27;4.53;;;11.20;52.00;;;;;;5012542;28;20396;-70
2024/03/20 02:29:10;;;;;;;8.77;4.70;;;11.20;51.40;;;;;;5012489;28;20377;-70
2024/03/20 02:31:36;;;;;;;8.32;4.72;;;11.20;51.20;;;;;;5012861;28;20388;-70
2024/03/20 02:34:01;;;;;;;10.95;5.40;;;11.30;51.20;;;;;;4994589;28;20396;-70
2024/03/20 02:36:27;;;;;;;8.40;4.80;;;11.30;51.50;;;;;;5012165;28;20463;-70
2024/03/20 02:38:53;;;;;;;9.50;5.40;;;11.30;51.50;;;;;;5012166;28;20392;-69
2024/03/20 02:41:19;;;;;;;8.27;4.70;;;11.30;51.10;;;;;;5011814;28;20930;-70
2024/03/20 02:43:45;;;;;;;9.75;4.93;;;11.30;51.30;;;;;;5011901;28;20389;-70
2024/03/20 02:46:10;;;;;;;7.15;4.30;;;11.40;51.10;;;;;;5011988;28;20435;-70
2024/03/20 02:48:36;;;;;;;9.32;4.57;;;11.40;50.90;;;;;;5012021;28;20471;-71
2024/03/20 02:51:02;;;;;;;10.80;4.87;;;11.40;50.90;;;;;;5011619;28;20749;-70
2024/03/20 02:53:27;;;;;;;8.23;4.90;;;11.40;50.50;;;;;;5011999;28;20434;-71
2024/03/20 02:55:53;;;;;;;8.10;5.00;;;11.40;50.50;;;;;;5012044;28;20434;-70
2024/03/20 02:58:18;;;;;;;8.80;5.20;;;11.40;50.30;;;;;;5012161;28;20486;-72
2024/03/20 03:00:44;;;;;;;9.20;5.00;;;11.40;50.40;;;;;;4993940;28;20448;-71
2024/03/20 03:03:09;;;;;;;7.33;4.97;;;11.50;50.60;;;;;;5012131;28;20804;-72
2024/03/20 03:05:35;;;;;;;7.60;4.50;;;11.50;50.30;;;;;;5011763;28;20830;-71
2024/03/20 03:08:00;;;;;;;8.60;4.38;;;11.50;50.50;;;;;;5011810;28;20381;-71
2024/03/20 03:10:27;;;;;;;8.80;4.53;;;11.40;50.40;;;;;;5011606;28;20389;-70
2024/03/20 03:12:53;;;;;;;10.90;5.00;;;11.40;50.80;;;;;;5011659;28;20460;-70
2024/03/20 03:15:19;;;;;;;9.93;4.70;;;11.40;50.90;;;;;;5011550;28;20391;-71
2024/03/20 03:17:47;;;;;;;8.60;5.03;;;11.30;51.40;;;;;;5011522;28;20412;-70
2024/03/20 03:20:16;;;;;;;9.63;5.13;;;11.20;51.40;;;;;;4993928;28;20477;-71
2024/03/20 03:22:42;;;;;;;9.60;5.47;;;11.20;51.90;;;;;;5011516;28;20376;-71
2024/03/20 03:25:09;;;;;;;7.68;4.95;;;11.20;52.10;;;;;;5011566;28;20443;-71
2024/03/20 03:27:35;;;;;;;10.85;5.28;;;11.10;52.50;;;;;;5011686;28;20397;-70
2024/03/20 03:30:01;;;;;;;10.15;5.25;;;11.10;52.80;;;;;;5011191;28;20875;-73
2024/03/20 03:32:26;;;;;;;12.05;5.05;;;11.00;53.50;;;;;;5010944;28;20407;-69
2024/03/20 03:34:52;;;;;;;10.23;4.90;;;10.90;54.00;;;;;;5010064;28;20876;-70
2024/03/20 03:37:18;;;;;;;9.48;4.88;;;10.90;54.00;;;;;;5011279;28;20411;-70
2024/03/20 03:39:44;;;;;;;10.98;5.47;;;10.80;54.70;;;;;;5011141;28;20393;-71
2024/03/20 03:42:09;;;;;;;9.70;5.63;;;10.70;55.50;;;;;;5011291;28;20400;-70
2024/03/20 03:44:35;;;;;;;7.63;5.27;;;10.60;56.00;;;;;;5011052;28;20389;-70
2024/03/20 03:47:01;;;;;;;6.72;4.97;;;10.60;56.30;;;;;;5011331;28;20395;-70
2024/03/20 03:49:26;;;;;;;10.70;5.45;;;10.60;56.60;;;;;;5011196;28;20393;-71
2024/03/20 03:51:52;;;;;;;7.88;5.10;;;10.60;56.80;;;;;;5011684;28;20763;-71
2024/03/20 03:54:17;;;;;;;11.50;5.38;;;10.60;57.30;;;;;;5011659;28;20905;-71
2024/03/20 03:56:43;;;;;;;9.50;5.22;;;10.50;57.90;;;;;;5011479;28;20400;-71
2024/03/20 03:59:09;;;;;;;9.07;5.03;;;10.50;58.30;;;;;;5010903;28;20401;-71
2024/03/20 04:01:34;;;;;;;10.30;6.13;;;10.50;58.60;;;;;;5010991;28;20412;-70
2024/03/20 04:04:00;;;;;;;10.87;6.27;;;10.40;59.00;;;;;;5010876;28;20447;-70
2024/03/20 04:06:25;;;;;;;11.13;5.50;;;10.40;59.70;;;;;;5010924;28;20388;-71
2024/03/20 04:08:51;;;;;;;8.60;5.83;;;10.30;60.10;;;;;;5011118;28;20471;-71
2024/03/20 04:11:20;;;;;;;10.25;5.68;;;10.30;60.70;;;;;;5010643;28;20781;-70
2024/03/20 04:13:46;;;;;;;9.30;5.60;;;10.30;60.70;;;;;;5010830;28;20479;-70
2024/03/20 04:16:12;;;;;;;10.70;6.22;;;10.30;61.20;;;;;;5010583;28;20427;-71
2024/03/20 04:18:37;;;;;;;11.85;6.30;;;10.30;61.40;;;;;;5010929;28;20879;-70
2024/03/20 04:21:03;;;;;;;10.55;5.60;;;10.30;61.40;;;;;;5010791;28;20380;-71
2024/03/20 04:23:29;;;;;;;11.03;5.23;;;10.40;61.20;;;;;;5011280;28;20759;-71
2024/03/20 04:25:54;;;;;;;11.93;5.80;;;10.30;60.90;;;;;;5017203;28;20389;-70
2024/03/20 04:28:20;;;;;;;9.27;5.07;;;10.30;61.60;;;;;;5019072;28;20403;-72
2024/03/20 04:30:45;;;;;;;9.15;6.00;;;10.20;62.40;;;;;;5017419;28;20459;-70
2024/03/20 04:33:12;;;;;;;9.93;5.90;;;10.20;62.90;;;;;;5016207;28;20388;-70
2024/03/20 04:35:38;;;;;;;9.57;5.63;;;10.20;62.40;;;;;;5014280;28;20392;-70
2024/03/20 04:38:04;;;;;;;11.18;5.95;;;10.20;63.00;;;;;;4993419;28;20778;-70
2024/03/20 04:40:29;;;;;;;8.50;5.20;;;10.20;63.50;;;;;;4993043;28;20891;-70
2024/03/20 04:42:55;;;;;;;10.93;5.40;;;10.10;63.90;;;;;;5010740;28;20460;-71
2024/03/20 04:45:21;;;;;;;10.45;5.50;;;10.20;63.90;;;;;;5012072;28;20487;-70
2024/03/20 04:47:46;;;;;;;8.95;5.75;;;10.30;62.70;;;;;;4996684;28;20397;-70
2024/03/20 04:50:12;;;;;;;10.85;5.65;;;10.30;62.70;;;;;;5013716;28;20438;-71
2024/03/20 04:52:38;;;;;;;7.65;5.22;;;10.30;62.70;;;;;;5014067;28;20391;-71
2024/03/20 04:55:07;;;;;;;9.98;6.03;;;10.30;63.10;;;;;;5014357;28;20432;-70
2024/03/20 04:57:33;;;;;;;9.18;5.63;;;10.20;63.20;;;;;;5015074;28;20405;-71
2024/03/20 04:59:59;;;;;;;14.13;6.40;;;10.20;63.00;;;;;;5015409;28;20876;-70
2024/03/20 05:02:25;;;;;;;12.68;5.90;;;10.20;63.10;;;;;;5014611;28;20397;-70
2024/03/20 05:04:50;;;;;;;12.05;6.10;;;10.20;63.60;;;;;;5014098;28;20381;-70
2024/03/20 05:07:16;;;;;;;11.57;5.80;;;10.20;63.40;;;;;;5013845;28;20409;-70
2024/03/20 05:09:42;;;;;;;9.57;5.95;;;10.20;63.40;;;;;;5013272;28;20398;-70
2024/03/20 05:12:07;;;;;;;11.17;5.50;;;10.20;63.40;;;;;;5013788;28;20388;-70
2024/03/20 05:14:33;;;;;;;13.33;6.40;;;10.20;63.50;;;;;;5013754;28;20739;-70
2024/03/20 05:17:00;;;;;;;10.23;5.40;;;10.20;63.30;;;;;;5013758;28;20405;-70
2024/03/20 05:19:28;;;;;;;9.63;5.13;;;10.20;63.40;;;;;;5013500;28;20419;-71
2024/03/20 05:21:54;;;;;;;8.57;5.70;;;10.20;63.50;;;;;;5013765;28;20827;-70
2024/03/20 05:24:19;;;;;;;10.37;5.90;;;10.20;63.00;;;;;;5013649;28;20404;-71
2024/03/20 05:26:45;;;;;;;10.50;5.63;;;10.30;62.90;;;;;;5013407;28;20420;-71
2024/03/20 05:29:11;;;;;;;18.40;6.23;;;10.20;62.90;;;;;;5014088;28;20416;-72
2024/03/20 05:31:38;;;;;;;10.95;5.72;;;10.20;63.00;;;;;;5013337;28;20401;-71
2024/03/20 05:34:04;;;;;;;9.82;5.75;;;10.30;63.20;;;;;;5013453;28;20385;-71
2024/03/20 05:36:30;;;;;;;12.13;5.85;;;10.30;62.60;;;;;;4995581;28;20432;-71
2024/03/20 05:38:55;;;;;;;10.47;5.63;;;10.40;62.50;;;;;;5013529;28;20524;-70
2024/03/20 05:41:21;;;;;;;10.10;6.10;;;10.40;62.40;;;;;;5012856;28;20385;-70
2024/03/20 05:43:47;;;;;;;11.43;5.78;;;10.50;61.40;;;;;;5012203;28;20476;-70
2024/03/20 05:46:14;;;;;;;14.53;6.40;;;10.50;61.20;;;;;;5011877;28;20395;-71
2024/03/20 05:48:42;;;;;;;10.85;6.13;;;10.60;60.60;;;;;;5012720;28;20389;-71
2024/03/20 05:51:07;;;;;;;10.48;6.00;;;10.60;60.80;;;;;;5015982;28;20486;-69
2024/03/20 05:53:33;;;;;;;10.55;6.30;;;10.60;60.30;;;;;;5013922;28;20927;-69
2024/03/20 05:55:59;;;;;;;8.30;6.17;;;10.60;60.00;;;;;;5013497;28;20381;-71
2024/03/20 05:58:25;;;;;;;13.95;6.80;;;10.60;59.90;;;;;;5012467;28;20408;-70
2024/03/20 06:00:51;;;;;;;11.75;6.30;;;10.60;60.40;;;;;;5012320;28;20487;-70
2024/03/20 06:03:18;;;;;;;10.48;6.38;;;10.60;60.30;;;;;;5013431;28;20400;-70
2024/03/20 06:05:44;;;;;;;16.27;8.40;;;10.60;60.70;;;;;;5011936;28;20807;-71
2024/03/20 06:08:09;;;;;;;10.98;6.60;;;10.60;61.10;;;;;;5011886;28;20400;-70
2024/03/20 06:10:35;;;;;;;13.50;6.63;;;10.60;60.70;;;;;;5012250;28;20538;-69
2024/03/20 06:13:00;;;;;;;13.35;7.03;;;10.60;60.40;;;;;;5012104;28;20424;-70
2024/03/20 06:15:26;;;;;;;10.38;6.82;;;10.60;60.00;;;;;;5012134;28;20411;-70
2024/03/20 06:17:53;;;;;;;14.77;7.05;;;10.70;59.60;;;;;;5012639;28;20478;-70
2024/03/20 06:20:19;;;;;;;12.40;6.97;;;10.70;59.70;;;;;;5011914;28;20405;-68
2024/03/20 06:22:44;;;;;;;10.77;6.30;;;10.70;59.70;;;;;;5012775;28;20377;-70
2024/03/20 06:25:10;;;;;;;12.75;6.75;;;10.70;59.00;;;;;;5012503;28;20420;-71
2024/03/20 06:27:36;;;;;;;15.68;7.30;;;10.80;58.60;;;;;;5012099;28;20388;-72
2024/03/20 06:30:04;;;;;;;15.13;6.95;;;10.80;58.50;;;;;;4994810;28;20452;-73
2024/03/20 06:32:32;;;;;;;13.57;7.20;;;10.90;58.50;;;;;;5013126;28;20396;-73
2024/03/20 06:34:58;;;;;;;11.27;6.97;;;10.90;57.90;;;;;;5012721;28;20403;-73
2024/03/20 06:37:23;;;;;;;12.05;6.95;;;11.00;57.20;;;;;;5013676;28;20404;-74
2024/03/20 06:39:49;;;;;;;11.80;6.70;;;11.10;56.70;;;;;;5013031;28;20424;-71
2024/03/20 06:42:20;;;;;;;12.60;6.70;;;11.20;55.60;;;;;;5013295;28;20380;-71
2024/03/20 06:44:47;;;;;;;9.73;6.45;;;11.40;55.10;;;;;;5012972;28;20415;-71
2024/03/20 06:47:13;;;;;;;14.70;6.50;;;11.50;54.00;;;;;;5012982;28;20384;-70
2024/03/20 06:49:38;;;;;;;10.13;6.60;;;11.60;53.60;;;;;;5011826;28;20392;-72
2024/03/20 06:52:04;;;;;;;16.10;7.97;;;11.70;53.00;;;;;;5012917;28;20430;-71
2024/03/20 06:54:30;;;;;;;13.80;7.10;;;11.80;51.30;;;;;;5012224;28;20438;-71
2024/03/20 06:57:01;;;;;;;16.75;6.90;;;12.00;50.70;;;;;;5011846;28;20880;-72
2024/03/20 06:59:29;;;;;;;14.80;6.63;;;12.10;50.40;;;;;;5011667;28;20398;-70
2024/03/20 07:01:58;;;;;;;13.23;7.10;;;12.30;48.60;;;;;;5011554;28;20400;-70
2024/03/20 07:04:25;;;;;;;10.73;6.72;;;12.50;47.60;;;;;;5011174;28;20396;-71
2024/03/20 07:06:51;;;;;;;15.32;7.88;;;12.50;47.00;;;;;;5011183;28;20396;-71
2024/03/20 07:09:17;;;;;;;13.50;7.40;;;12.60;46.90;;;;;;5010436;28;20450;-70
2024/03/20 07:11:42;;;;;;;13.33;7.43;;;12.70;46.30;;;;;;5011576;28;20472;-71
2024/03/20 07:14:08;;;;;;;15.80;7.20;;;12.80;46.00;;;;;;5011534;28;20760;-70
2024/03/20 07:16:33;;;;;;;15.03;7.60;;;12.90;45.50;;;;;;5010891;28;20400;-71
2024/03/20 07:18:59;;;;;;;15.13;7.97;;;13.00;44.90;;;;;;5011209;28;20460;-71
2024/03/20 07:21:25;;;;;;;12.98;7.72;;;13.10;44.00;;;;;;5011305;28;20448;-71
2024/03/20 07:23:51;;;;;;;13.40;7.90;;;13.20;43.30;;;;;;5011298;28;20381;-72
2024/03/20 07:26:16;;;;;;;18.83;7.50;;;13.20;42.80;;;;;;5011255;28;20396;-71
2024/03/20 07:28:42;;;;;;;12.93;7.55;;;13.20;42.70;;;;;;5011259;28;20890;-72
2024/03/20 07:31:09;;;;;;;15.07;7.90;;;13.30;42.20;;;;;;5010972;28;20384;-71
2024/03/20 07:33:35;;;;;;;13.18;7.70;;;13.30;42.20;;;;;;5011005;28;20388;-71
2024/03/20 07:36:01;;;;;;;15.55;7.60;;;13.30;42.30;;;;;;5011056;28;20389;-71
2024/03/20 07:38:26;;;;;;;14.13;8.40;;;13.30;41.60;;;;;;5010952;28;20401;-72
2024/03/20 07:40:52;;;;;;;19.17;7.90;;;13.40;41.40;;;;;;5010897;28;20392;-72
2024/03/20 07:43:18;;;;;;;13.88;8.32;;;13.30;41.60;;;;;;5011850;28;20744;-71
2024/03/20 07:45:44;;;;;;;12.80;7.73;;;13.40;41.50;;;;;;5010765;28;20393;-71
2024/03/20 07:48:09;;;;;;;15.00;8.80;;;13.40;41.80;;;;;;5010524;28;20481;-71
2024/03/20 07:50:35;;;;;;;16.20;8.90;;;13.50;41.90;;;;;;5010551;28;20480;-71
2024/03/20 07:53:00;;;;;;;13.57;9.00;;;13.50;41.90;;;;;;5010538;28;20389;-71
2024/03/20 07:55:26;;;;;;;17.83;8.30;;;13.40;42.20;;;;;;5010935;28;20427;-71
2024/03/20 07:57:52;;;;;;;15.93;8.40;;;13.30;42.20;;;;;;5010584;28;20947;-70
2024/03/20 08:00:27;;;;;;;19.00;9.63;;;13.30;42.60;;;;;;5010617;28;20395;-70
2024/03/20 08:02:52;;;;;;;15.35;8.52;;;13.40;42.70;;;;;;5010528;28;20560;-70
2024/03/20 08:05:18;;;;;;;16.13;8.80;;;13.60;42.40;;;;;;5010530;28;20551;-70
2024/03/20 08:07:43;;;;;;;14.40;8.80;;;13.70;41.90;;;;;;5010273;28;20431;-70
2024/03/20 08:10:09;;;;;;;17.02;8.48;;;13.90;41.80;;;;;;5010614;28;20396;-71
2024/03/20 08:12:36;;;;;;;20.30;9.82;;;14.10;41.10;;;;;;5010811;28;20388;-70
2024/03/20 08:15:03;;;;;;;18.75;9.32;;;14.20;39.80;;;;;;5011405;28;20508;-71
2024/03/20 08:17:29;;;;;;;16.23;9.48;;;14.30;39.00;;;;;;5010620;28;20822;-71
2024/03/20 08:19:54;;;;;;;17.33;9.60;;;14.40;38.90;;;;;;4995089;28;20396;-71
2024/03/20 08:22:20;;;;;;;14.93;9.55;;;14.50;38.80;;;;;;5014892;28;20535;-71
2024/03/20 08:24:46;;;;;;;20.55;10.70;;;14.60;38.10;;;;;;5028087;23;20432;-74
2024/03/20 08:27:12;;;;;;;16.60;10.05;;;14.60;37.70;;;;;;5015196;28;20388;-75
2024/03/20 08:29:37;;;;;;;17.45;8.65;;;14.80;37.30;;;;;;5014364;28;20384;-75
2024/03/20 08:32:09;;;;;;;17.55;9.45;;;14.80;37.10;;;;;;5014736;28;20415;-74
2024/03/20 08:34:35;;;;;;;16.88;9.32;;;14.80;37.00;;;;;;5014905;28;20854;-76
2024/03/20 08:37:02;;;;;;;17.97;9.27;;;14.90;37.00;;;;;;5015155;28;20480;-75
2024/03/20 08:39:27;;;;;;;18.98;9.80;;;15.00;36.60;;;;;;5014544;28;20458;-77
2024/03/20 08:41:53;;;;;;;17.47;10.10;;;15.00;36.30;;;;;;5015057;28;20389;-76
2024/03/20 08:44:18;;;;;;;18.02;10.20;;;15.10;36.00;;;;;;5015138;28;20392;-75
2024/03/20 08:46:44;;;;;;;22.60;10.07;;;15.30;36.20;;;;;;5014857;28;20747;-76
2024/03/20 08:49:10;;;;;;;21.40;10.00;;;15.30;35.50;;;;;;4997554;28;20388;-76
2024/03/20 08:51:36;;;;;;;16.08;10.23;;;15.40;35.40;;;;;;5016061;28;20389;-75
2024/03/20 08:54:02;;;;;;;16.90;9.50;;;15.40;35.10;;;;;;5016869;28;20454;-74
2024/03/20 08:56:28;;;;;;;19.52;10.20;;;15.50;35.20;;;;;;5017691;28;20412;-74
2024/03/20 08:58:53;;;;;;;16.33;9.57;;;15.50;34.90;;;;;;5000005;28;20449;-76
2024/03/20 09:01:19;;;;;;;19.15;10.00;;;15.40;35.00;;;;;;5015994;28;20392;-75
2024/03/20 09:03:45;;;;;;;17.20;9.30;;;15.50;35.30;;;;;;5017125;28;20388;-75
2024/03/20 09:06:10;;;;;;;21.47;11.20;;;15.60;35.20;;;;;;5016623;28;20389;-74
2024/03/20 09:08:36;;;;;;;17.55;10.00;;;15.80;34.20;;;;;;5030571;28;20384;-76
2024/03/20 09:11:02;;;;;;;18.58;9.68;;;15.90;33.40;;;;;;5031421;28;20389;-75
2024/03/20 09:13:29;;;;;;;19.02;9.25;;;16.00;33.40;;;;;;5030523;28;20482;-75
2024/03/20 09:15:55;;;;;;;17.65;10.30;;;16.10;33.30;;;;;;5032033;28;20447;-74
2024/03/20 09:18:20;;;;;;;20.33;9.60;;;16.20;32.70;;;;;;5024272;28;20436;-76
2024/03/20 09:20:46;;;;;;;16.85;9.57;;;16.20;32.60;;;;;;5008139;28;20393;-75
2024/03/20 09:23:12;;;;;;;14.90;9.60;;;16.20;33.00;;;;;;5033626;28;20500;-74
2024/03/20 09:25:38;;;;;;;19.85;10.70;;;16.20;33.10;;;;;;5033551;28;20408;-75
2024/03/20 09:28:03;;;;;;;22.65;10.30;;;16.20;33.00;;;;;;5032606;28;20400;-75
2024/03/20 09:30:29;;;;;;;19.83;10.10;;;16.30;32.90;;;;;;5021418;28;20759;-75
2024/03/20 09:32:56;;;;;;;20.27;10.10;;;16.50;32.00;;;;;;5024904;28;20401;-75
2024/03/20 09:35:21;;;;;;;20.58;8.90;;;16.50;32.20;;;;;;5000137;28;20397;-77
2024/03/20 09:37:47;;;;;;;18.60;9.60;;;16.60;32.30;;;;;;5017808;28;20497;-74
2024/03/20 09:40:21;;;;;;;19.55;8.82;;;16.70;31.50;;;;;;5016247;28;20450;-74
2024/03/20 09:42:47;;;;;;;28.38;10.27;;;16.90;31.70;;;;;;5000240;28;20779;-76
2024/03/20 09:45:13;;;;;;;20.10;9.40;;;16.90;31.10;;;;;;5018892;28;20412;-74
2024/03/20 09:47:39;;;;;;;18.95;8.85;;;17.00;30.80;;;;;;5022674;28;20502;-74
2024/03/20 09:50:15;;;;;;;22.98;9.90;;;16.90;31.00;;;;;;5020571;28;20446;-76
2024/03/20 09:52:41;;;;;;;16.27;8.77;;;17.00;30.90;;;;;;5017578;28;20392;-76
2024/03/20 09:55:11;;;;;;;14.40;8.57;;;17.10;30.90;;;;;;5016574;28;20400;-76
2024/03/20 09:57:41;;;;;;;18.13;8.77;;;17.20;30.00;;;;;;5018280;28;20411;-74
2024/03/20 10:00:14;;;;;;;16.05;8.63;;;17.20;30.00;;;;;;4999580;28;20476;-76
2024/03/20 10:02:42;;;;;;;13.55;8.00;;;17.20;29.80;;;;;;5016036;28;20438;-74
2024/03/20 10:05:08;;;;;;;16.42;8.40;;;17.30;29.60;;;;;;5015946;28;20752;-76
2024/03/20 10:07:37;;;;;;;17.42;8.48;;;17.30;29.80;;;;;;5015706;28;20384;-76
2024/03/20 10:10:05;;;;;;;13.87;8.20;;;17.40;29.90;;;;;;5015080;28;20700;-76
2024/03/20 10:12:30;;;;;;;15.32;9.05;;;17.50;29.80;;;;;;5015832;28;20764;-76
2024/03/20 10:14:57;;;;;;;14.87;8.33;;;17.60;29.30;;;;;;5017048;28;20393;-74
2024/03/20 10:17:23;;;;;;;13.65;8.20;;;17.70;28.60;;;;;;5015307;28;20401;-75
2024/03/20 10:19:48;;;;;;;13.48;7.72;;;17.90;28.10;;;;;;4996446;28;20403;-74
2024/03/20 10:22:14;;;;;;;18.77;8.10;;;17.90;27.70;;;;;;5013507;28;20437;-75
2024/03/20 10:24:41;;;;;;;16.05;8.70;;;18.00;28.20;;;;;;4995074;28;20758;-75
2024/03/20 10:27:08;;;;;;;16.30;8.45;;;18.00;27.50;;;;;;5013253;28;20396;-75
2024/03/20 10:29:35;;;;;;;20.23;8.95;;;18.10;27.70;;;;;;4996130;28;20408;-76
2024/03/20 10:32:02;;;;;;;17.08;8.55;;;18.10;27.50;;;;;;5013660;28;20905;-76
2024/03/20 10:34:28;;;;;;;16.50;8.35;;;18.20;27.60;;;;;;5014345;28;20397;-74
2024/03/20 10:36:54;;;;;;;14.40;8.37;;;18.40;27.00;;;;;;5015107;28;20459;-75
2024/03/20 10:39:23;;;;;;;16.13;7.82;;;18.50;26.60;;;;;;5014323;28;20887;-75
2024/03/20 10:41:53;;;;;;;17.67;8.52;;;18.60;26.00;;;;;;5013630;28;20480;-75
2024/03/20 10:44:20;;;;;;;15.98;7.97;;;18.70;25.70;;;;;;5014228;28;20385;-75
2024/03/20 10:46:47;;;;;;;14.60;7.55;;;18.60;25.20;;;;;;5016120;28;20479;-75
2024/03/20 10:49:21;;;;;;;14.13;8.02;;;18.70;25.80;;;;;;4998548;28;20389;-75
2024/03/20 10:51:48;;;;;;;12.40;7.35;;;18.80;25.80;;;;;;5013867;28;20806;-76
2024/03/20 10:54:14;;;;;;;13.30;7.25;;;18.90;25.40;;;;;;5014097;28;20395;-77
2024/03/20 10:56:47;;;;;;;11.85;5.75;;;19.00;24.40;;;;;;5014599;28;20767;-74
2024/03/20 10:59:21;;;;;;;11.98;5.90;;;19.20;23.90;;;;;;5013331;28;20387;-75
2024/03/20 11:02:06;;;;;;;16.80;6.55;;;19.30;23.30;;;;;;5012556;28;20431;-77
2024/03/20 11:04:36;;;;;;;13.27;5.93;;;19.40;23.50;;;;;;5012186;28;20493;-74
2024/03/20 11:07:21;;;;;;;11.70;6.32;;;19.40;22.00;;;;;;5012493;28;20388;-76
2024/03/20 11:09:48;;;;;;;12.27;6.43;;;19.50;23.40;;;;;;5011797;28;20392;-76
2024/03/20 11:12:26;;;;;;;12.55;6.40;;;19.60;22.60;;;;;;5012331;28;20475;-76
2024/03/20 11:14:52;;;;;;;12.70;6.07;;;19.70;22.40;;;;;;5011474;28;20779;-76
2024/03/20 11:17:20;;;;;;;14.77;7.15;;;19.80;22.50;;;;;;5012782;28;20475;-74
2024/03/20 11:19:45;;;;;;;12.57;7.10;;;19.90;22.20;;;;;;5011231;28;20476;-76
2024/03/20 11:22:24;;;;;;;11.80;6.90;;;19.80;22.50;;;;;;5011364;28;20826;-76
2024/03/20 11:24:53;;;;;;;12.88;7.53;;;19.80;22.60;;;;;;5011374;28;20393;-75
2024/03/20 11:27:22;;;;;;;10.98;6.38;;;19.90;22.00;;;;;;5011843;28;20389;-76
2024/03/20 11:29:48;;;;;;;15.77;6.30;;;19.90;22.50;;;;;;5011855;28;20462;-77
2024/03/20 11:32:16;;;;;;;15.10;6.90;;;19.90;21.80;;;;;;5011742;28;20438;-75
2024/03/20 11:34:42;;;;;;;13.55;6.00;;;19.90;21.80;;;;;;5011375;28;20756;-77
2024/03/20 11:37:18;;;;;;;11.90;6.40;;;20.00;21.70;;;;;;5012556;28;20397;-76
2024/03/20 11:39:45;;;;;;;9.73;5.70;;;20.00;21.70;;;;;;4994448;28;20392;-77
2024/03/20 11:42:12;;;;;;;11.00;5.00;;;20.10;21.10;;;;;;5013335;28;20867;-76
2024/03/20 11:44:41;;;;;;;9.98;5.43;;;20.30;20.90;;;;;;5012982;28;20396;-75
2024/03/20 11:47:14;;;;;;;10.55;5.00;;;20.50;20.00;;;;;;5013722;28;20387;-78
2024/03/20 11:49:41;;;;;;;8.57;4.70;;;20.70;19.80;;;;;;5012675;28;20423;-76
2024/03/20 11:52:14;;;;;;;10.73;5.90;;;20.80;19.70;;;;;;5012188;28;20396;-77
2024/03/20 11:54:40;;;;;;;12.38;6.10;;;20.80;19.80;;;;;;5012799;28;20446;-78
2024/03/20 11:57:10;;;;;;;9.32;5.65;;;20.90;19.60;;;;;;5012220;28;20404;-76
2024/03/20 11:59:36;;;;;;;13.90;6.18;;;21.00;19.50;;;;;;5012096;28;20473;-76
2024/03/20 12:02:02;;;;;;;13.65;5.10;;;20.90;19.70;;;;;;5012394;28;20817;-77
2024/03/20 12:04:28;;;;;;;9.07;5.00;;;20.90;18.60;;;;;;4978141;28;20397;-75
2024/03/20 12:06:54;;;;;;;9.88;4.80;;;20.90;19.50;;;;;;5012009;28;20401;-76
2024/03/20 12:09:19;;;;;;;11.45;5.00;;;20.80;19.40;;;;;;5015161;28;20384;-74
2024/03/20 12:11:45;;;;;;;12.07;5.00;;;20.80;19.40;;;;;;5011781;28;20507;-75
2024/03/20 12:14:11;;;;;;;12.07;5.30;;;20.90;19.30;;;;;;5011726;28;20388;-75
2024/03/20 12:16:37;;;;;;;8.68;5.47;;;20.90;19.40;;;;;;5012367;28;20393;-76
2024/03/20 12:19:03;;;;;;;8.77;4.90;;;20.80;19.20;;;;;;5012466;28;20458;-77
2024/03/20 12:21:29;;;;;;;10.27;4.88;;;20.60;19.80;;;;;;5015396;28;20439;-76
2024/03/20 12:23:54;;;;;;;8.98;4.03;;;20.40;19.60;;;;;;4994569;28;20389;-75
2024/03/20 12:26:22;;;;;;;8.20;3.50;;;20.30;19.50;;;;;;5011214;28;20397;-74
2024/03/20 12:28:49;;;;;;;9.45;3.30;;;20.40;19.40;;;;;;5010808;28;20404;-75
2024/03/20 12:31:17;;;;;;;5.90;3.13;;;20.40;18.70;;;;;;5010302;28;20495;-73
2024/03/20 12:33:46;;;;;;;7.28;3.95;;;20.60;20.00;;;;;;5011026;28;21283;-73
2024/03/20 12:36:12;;;;;;;7.40;3.70;;;20.80;18.50;;;;;;5010686;28;20389;-74